createdAt,value
2023-05-19T00:00:53.505Z,100.00
2023-05-19T00:04:02.711Z,100.00
2023-05-19T00:07:05.781Z,100.00
2023-05-19T00:10:08.264Z,100.00
2023-05-19T00:13:10.224Z,100.00
2023-05-19T00:16:12.970Z,100.00
2023-05-19T00:19:14.876Z,100.00
2023-05-19T00:22:16.969Z,100.00
2023-05-19T00:25:18.805Z,100.00
2023-05-19T00:28:20.568Z,100.00
2023-05-19T00:31:22.709Z,100.00
2023-05-19T00:34:24.772Z,100.00
2023-05-19T00:37:26.896Z,100.00
2023-05-19T00:40:31.504Z,100.00
2023-05-19T00:43:34.497Z,100.00
2023-05-19T00:46:36.548Z,100.00
2023-05-19T00:49:38.412Z,100.00
2023-05-19T00:52:40.445Z,100.00
2023-05-19T00:55:43.072Z,100.00
2023-05-19T00:58:48.051Z,100.00
2023-05-19T01:01:55.300Z,100.00
2023-05-19T01:04:57.933Z,100.00
2023-05-19T01:08:00.972Z,100.00
2023-05-19T01:11:03.595Z,100.00
2023-05-19T01:14:06.144Z,100.00
2023-05-19T01:17:10.220Z,100.00
2023-05-19T01:20:38.736Z,100.00
2023-05-19T01:23:52.177Z,100.00
2023-05-19T01:27:12.449Z,100.00
2023-05-19T01:30:52.116Z,100.00
2023-05-19T01:33:57.458Z,100.00
2023-05-19T01:37:01.829Z,100.00
2023-05-19T01:40:04.364Z,100.00
2023-05-19T01:43:10.840Z,100.00
2023-05-19T01:46:13.016Z,100.00
2023-05-19T01:49:14.936Z,100.00
2023-05-19T01:52:19.350Z,100.00
2023-05-19T01:55:23.815Z,100.00
2023-05-19T01:58:45.660Z,100.00
2023-05-19T02:01:57.593Z,100.00
2023-05-19T02:05:29.852Z,100.00
2023-05-19T02:09:04.061Z,100.00
2023-05-19T02:12:17.552Z,100.00
2023-05-19T02:15:27.217Z,100.00
2023-05-19T02:18:30.057Z,100.00
2023-05-19T02:21:33.173Z,100.00
2023-05-19T02:24:35.132Z,100.00
2023-05-19T02:27:38.644Z,100.00
2023-05-19T02:30:41.080Z,100.00
2023-05-19T02:33:43.269Z,100.00
2023-05-19T02:36:45.388Z,100.00
2023-05-19T02:39:48.599Z,100.00
2023-05-19T02:42:50.454Z,100.00
2023-05-19T02:45:52.789Z,100.00
2023-05-19T02:48:55.520Z,100.00
2023-05-19T02:51:57.673Z,100.00
2023-05-19T02:55:00.784Z,100.00
2023-05-19T02:58:02.836Z,100.00
2023-05-19T03:01:08.072Z,100.00
2023-05-19T03:04:09.965Z,100.00
2023-05-19T03:07:13.499Z,100.00
2023-05-19T03:10:15.825Z,100.00
2023-05-19T03:13:17.600Z,100.00
2023-05-19T03:16:19.692Z,100.00
2023-05-19T03:19:22.069Z,100.00
2023-05-19T03:22:24.178Z,100.00
2023-05-19T03:25:30.066Z,100.00
2023-05-19T03:28:32.151Z,100.00
2023-05-19T03:31:34.141Z,100.00
2023-05-19T03:34:36.357Z,100.00
2023-05-19T03:37:38.224Z,100.00
2023-05-19T03:40:41.497Z,100.00
2023-05-19T03:43:46.171Z,100.00
2023-05-19T03:46:51.164Z,100.00
2023-05-19T03:50:11.195Z,100.00
2023-05-19T03:53:26.920Z,100.00
2023-05-19T03:56:28.746Z,100.00
2023-05-19T03:59:31.382Z,100.00
2023-05-19T04:02:33.572Z,100.00
2023-05-19T04:05:35.593Z,100.00
2023-05-19T04:08:37.743Z,100.00
2023-05-19T04:11:40.542Z,100.00
2023-05-19T04:14:42.907Z,100.00
2023-05-19T04:17:48.348Z,100.00
2023-05-19T04:20:51.222Z,100.00
2023-05-19T04:23:54.793Z,100.00
2023-05-19T04:26:56.964Z,100.00
2023-05-19T04:29:59.759Z,100.00
2023-05-19T04:33:05.170Z,100.00
2023-05-19T04:36:10.665Z,100.00
2023-05-19T04:39:15.761Z,100.00
2023-05-19T04:42:26.095Z,100.00
2023-05-19T04:45:29.010Z,100.00
2023-05-19T04:48:34.491Z,100.00
2023-05-19T04:51:36.411Z,100.00
2023-05-19T04:54:39.719Z,100.00
2023-05-19T04:57:42.323Z,100.00
2023-05-19T05:00:44.915Z,100.00
2023-05-19T05:03:50.742Z,100.00
2023-05-19T05:06:52.692Z,100.00
2023-05-19T05:09:56.004Z,100.00
2023-05-19T05:13:00.814Z,100.00
2023-05-19T05:16:06.588Z,100.00
2023-05-19T05:19:09.740Z,100.00
2023-05-19T05:22:13.318Z,100.00
2023-05-19T05:25:16.575Z,100.00
2023-05-19T05:28:19.593Z,100.00
2023-05-19T05:31:22.827Z,100.00
2023-05-19T05:34:25.069Z,100.00
2023-05-19T05:37:27.270Z,100.00
2023-05-19T05:40:29.762Z,100.00
2023-05-19T05:43:32.427Z,100.00
2023-05-19T05:46:38.118Z,100.00
2023-05-19T05:49:40.300Z,100.00
2023-05-19T05:52:47.364Z,100.00
2023-05-19T05:55:51.785Z,100.00
2023-05-19T05:58:54.140Z,100.00
2023-05-19T06:01:56.436Z,100.00
2023-05-19T06:04:59.004Z,100.00
2023-05-19T06:08:01.343Z,100.00
2023-05-19T06:11:09.560Z,100.00
2023-05-19T06:14:13.683Z,100.00
2023-05-19T06:17:38.261Z,100.00
2023-05-19T06:20:40.262Z,100.00
2023-05-19T06:23:42.584Z,100.00
2023-05-19T06:26:46.929Z,100.00
2023-05-19T06:29:48.916Z,100.00
2023-05-19T06:32:51.131Z,100.00
2023-05-19T06:35:53.181Z,100.00
2023-05-19T06:38:56.303Z,100.00
2023-05-19T06:41:58.426Z,100.00
2023-05-19T06:45:22.122Z,100.00
2023-05-19T06:48:26.100Z,100.00
2023-05-19T06:51:28.230Z,100.00
2023-05-19T06:54:32.088Z,100.00
2023-05-19T06:57:34.222Z,100.00
2023-05-19T07:00:37.681Z,100.00
2023-05-19T07:03:43.460Z,100.00
2023-05-19T07:06:47.534Z,100.00
2023-05-19T07:09:49.738Z,100.00
2023-05-19T07:12:53.798Z,100.00
2023-05-19T07:15:58.825Z,100.00
2023-05-19T07:19:04.107Z,100.00
2023-05-19T07:22:06.490Z,100.00
2023-05-19T07:25:16.963Z,100.00
2023-05-19T07:28:22.970Z,100.00
2023-05-19T07:31:26.154Z,100.00
2023-05-19T07:34:29.275Z,100.00
2023-05-19T07:37:31.328Z,100.00
2023-05-19T07:40:33.822Z,100.00
2023-05-19T07:43:39.021Z,100.00
2023-05-19T07:46:41.895Z,100.00
2023-05-19T07:49:51.754Z,100.00
2023-05-19T07:52:55.524Z,100.00
2023-05-19T07:55:59.965Z,100.00
2023-05-19T07:59:02.647Z,100.00
2023-05-19T08:02:04.800Z,100.00
2023-05-19T08:05:12.641Z,100.00
2023-05-19T08:08:17.071Z,100.00
2023-05-19T08:11:19.178Z,100.00
2023-05-19T08:14:28.337Z,100.00
2023-05-19T08:17:31.633Z,100.00
2023-05-19T08:20:35.414Z,100.00
2023-05-19T08:23:49.785Z,100.00
2023-05-19T08:26:52.115Z,100.00
2023-05-19T08:29:55.517Z,100.00
2023-05-19T08:32:58.609Z,100.00
2023-05-19T08:36:08.280Z,100.00
2023-05-19T08:39:11.151Z,100.00
2023-05-19T08:42:16.914Z,100.00
2023-05-19T08:45:20.495Z,100.00
2023-05-19T08:48:23.344Z,100.00
2023-05-19T08:51:32.605Z,100.00
2023-05-19T08:54:47.261Z,100.00
2023-05-19T08:57:51.198Z,100.00
2023-05-19T09:01:03.495Z,100.00
2023-05-19T09:04:10.638Z,100.00
2023-05-19T09:07:19.006Z,100.00
2023-05-19T09:10:35.442Z,100.00
2023-05-19T09:13:38.234Z,100.00
2023-05-19T09:17:16.433Z,100.00
2023-05-19T09:20:27.053Z,100.00
2023-05-19T09:23:34.177Z,100.00
2023-05-19T09:26:40.365Z,100.00
2023-05-19T09:29:45.638Z,100.00
2023-05-19T09:32:59.593Z,100.00
2023-05-19T09:36:05.109Z,100.00
2023-05-19T09:39:18.531Z,100.00
2023-05-19T09:42:38.968Z,100.00
2023-05-19T09:46:14.790Z,100.00
2023-05-19T09:49:31.353Z,100.00
2023-05-19T09:52:39.234Z,100.00
2023-05-19T09:55:42.974Z,100.00
2023-05-19T09:58:48.753Z,100.00
2023-05-19T10:01:55.649Z,100.00
2023-05-19T10:04:57.960Z,100.00
2023-05-19T10:08:00.893Z,100.00
2023-05-19T10:11:05.109Z,100.00
2023-05-19T10:14:08.440Z,100.00
2023-05-19T10:17:12.261Z,100.00
2023-05-19T10:20:17.143Z,100.00
2023-05-19T10:23:19.516Z,100.00
2023-05-19T10:26:23.227Z,100.00
2023-05-19T10:29:43.621Z,100.00
2023-05-19T10:32:48.626Z,100.00
2023-05-19T10:36:18.922Z,96.05
2023-05-19T10:39:37.904Z,84.88
2023-05-19T10:43:12.917Z,89.49
2023-05-19T10:46:16.433Z,84.55
2023-05-19T10:49:24.198Z,90.42
2023-05-19T10:52:30.054Z,85.92
2023-05-19T10:56:04.981Z,90.34
2023-05-19T10:59:07.165Z,94.46
2023-05-19T11:02:09.710Z,100.00
2023-05-19T11:05:18.685Z,95.89
2023-05-19T11:08:34.526Z,100.00
2023-05-19T11:11:54.201Z,92.87
2023-05-19T11:15:01.082Z,97.01
2023-05-19T11:18:07.125Z,91.87
2023-05-19T11:21:16.396Z,85.22
2023-05-19T11:25:06.849Z,83.94
2023-05-19T11:28:23.444Z,85.48
2023-05-19T11:31:28.466Z,88.58
2023-05-19T11:34:39.112Z,92.02
2023-05-19T11:38:00.845Z,88.11
2023-05-19T11:41:10.644Z,84.43
2023-05-19T11:52:32.586Z,84.26
2023-05-19T11:55:41.085Z,74.69
2023-05-19T11:58:43.607Z,78.48
2023-05-19T12:01:53.561Z,69.33
2023-05-19T12:05:10.295Z,71.38
2023-05-19T12:08:19.602Z,69.62
2023-05-19T12:11:25.359Z,77.30
2023-05-19T12:14:31.530Z,70.45
2023-05-19T12:17:34.987Z,70.65
2023-05-19T12:20:38.038Z,62.23
2023-05-19T12:23:44.690Z,63.56
2023-05-19T12:26:54.332Z,59.52
2023-05-19T12:29:57.656Z,58.88
2023-05-19T12:33:03.677Z,66.19
2023-05-19T12:36:08.957Z,63.29
2023-05-19T12:39:11.885Z,59.21
2023-05-19T12:42:16.611Z,51.93
2023-05-19T12:45:23.298Z,54.11
2023-05-19T12:48:25.402Z,56.56
2023-05-19T12:51:27.235Z,55.02
2023-05-19T12:54:33.746Z,48.17
2023-05-19T12:57:37.151Z,47.50
2023-05-19T13:00:50.603Z,48.40
2023-05-19T13:03:53.154Z,51.59
2023-05-19T13:06:55.916Z,48.25
2023-05-19T13:09:57.789Z,49.35
2023-05-19T13:13:00.723Z,46.06
2023-05-19T13:16:02.702Z,47.92
2023-05-19T13:19:06.341Z,48.09
2023-05-19T13:22:11.464Z,48.84
2023-05-19T13:25:23.532Z,47.86
2023-05-19T13:28:26.498Z,52.53
2023-05-19T13:31:29.205Z,51.18
2023-05-19T13:34:31.310Z,46.91
2023-05-19T13:37:33.810Z,46.87
2023-05-19T13:40:37.128Z,47.27
2023-05-19T13:43:39.117Z,48.45
2023-05-19T13:46:45.819Z,50.05
2023-05-19T13:50:04.650Z,47.51
2023-05-19T13:53:06.915Z,45.18
2023-05-19T13:56:09.225Z,45.16
2023-05-19T13:59:12.085Z,41.65
2023-05-19T14:02:20.721Z,44.87
2023-05-19T14:05:24.793Z,43.99
2023-05-19T14:08:31.441Z,46.58
2023-05-19T14:11:34.340Z,50.42
2023-05-19T14:14:36.689Z,50.82
2023-05-19T14:17:38.947Z,48.67
2023-05-19T14:20:41.951Z,45.49
2023-05-19T14:23:45.677Z,44.27
2023-05-19T14:26:48.812Z,44.98
2023-05-19T14:29:51.106Z,45.28
2023-05-19T14:32:55.533Z,46.65
2023-05-19T14:36:05.693Z,49.34
2023-05-19T14:39:07.949Z,48.33
2023-05-19T14:42:10.793Z,50.51
2023-05-19T14:45:13.634Z,50.83
2023-05-19T14:48:16.049Z,51.04
2023-05-19T14:51:19.267Z,49.00
2023-05-19T14:54:21.138Z,46.86
2023-05-19T14:57:23.304Z,47.22
2023-05-19T15:00:27.875Z,49.21
2023-05-19T15:03:30.217Z,52.28
2023-05-19T15:06:33.284Z,55.07
2023-05-19T15:09:36.143Z,53.67
2023-05-19T15:12:38.740Z,53.27
2023-05-19T15:15:40.735Z,52.67
2023-05-19T15:18:42.889Z,52.22
2023-05-19T15:21:45.779Z,48.08
2023-05-19T15:24:48.012Z,46.88
2023-05-19T15:27:51.823Z,46.61
2023-05-19T15:30:56.389Z,44.63
2023-05-19T15:33:58.423Z,46.96
2023-05-19T15:37:00.521Z,45.69
2023-05-19T15:40:05.688Z,45.85
2023-05-19T15:43:08.912Z,43.96
2023-05-19T15:46:13.340Z,44.96
2023-05-19T15:49:15.410Z,46.24
2023-05-19T15:52:17.801Z,48.12
2023-05-19T15:55:23.398Z,49.77
2023-05-19T15:58:25.749Z,49.62
2023-05-19T16:01:28.085Z,49.18
2023-05-19T16:04:30.469Z,48.70
2023-05-19T16:07:32.852Z,49.03
2023-05-19T16:10:35.325Z,50.14
2023-05-19T16:13:38.034Z,49.99
2023-05-19T16:16:40.316Z,50.11
2023-05-19T16:19:46.679Z,57.19
2023-05-19T16:22:51.873Z,54.06
2023-05-19T16:25:54.929Z,48.00
2023-05-19T16:28:57.068Z,44.50
2023-05-19T16:31:59.194Z,48.30
2023-05-19T16:35:02.358Z,49.09
2023-05-19T16:38:04.581Z,51.26
2023-05-19T16:41:07.323Z,52.29
2023-05-19T16:44:14.649Z,52.39
2023-05-19T16:47:17.044Z,51.86
2023-05-19T16:50:21.950Z,52.65
2023-05-19T16:53:24.039Z,56.76
2023-05-19T16:56:25.980Z,59.20
2023-05-19T16:59:28.391Z,61.48
2023-05-19T17:02:31.151Z,58.55
2023-05-19T17:05:35.970Z,59.06
2023-05-19T17:08:38.690Z,62.68
2023-05-19T17:11:42.383Z,61.23
2023-05-19T17:14:45.194Z,60.58
2023-05-19T17:17:50.788Z,60.86
2023-05-19T17:20:55.508Z,63.75
2023-05-19T17:23:58.603Z,67.64
2023-05-19T17:27:05.495Z,63.66
2023-05-19T17:30:09.263Z,62.70
2023-05-19T17:33:11.285Z,65.09
2023-05-19T17:36:13.988Z,65.86
2023-05-19T17:39:16.578Z,65.10
2023-05-19T17:42:31.291Z,66.08
2023-05-19T17:45:42.020Z,69.38
2023-05-19T17:52:20.882Z,72.14
2023-05-19T17:55:33.518Z,74.51
2023-05-19T17:58:43.776Z,74.89
2023-05-19T18:02:11.930Z,74.46
2023-05-19T18:05:23.025Z,75.16
2023-05-19T18:08:35.626Z,75.33
2023-05-19T18:11:55.804Z,79.05
2023-05-19T18:18:48.386Z,84.44
2023-05-19T18:22:20.532Z,84.99
2023-05-19T18:29:23.565Z,86.25
2023-05-19T18:33:19.352Z,87.94
2023-05-19T18:45:13.774Z,100.00
2023-05-19T19:20:30.545Z,100.00
2023-05-19T19:25:09.079Z,100.00
2023-05-19T19:28:43.768Z,100.00
2023-05-19T19:32:34.558Z,100.00
2023-05-19T19:36:26.592Z,100.00
2023-05-19T19:43:44.100Z,100.00
2023-05-19T19:47:13.221Z,100.00
2023-05-19T19:50:33.562Z,100.00
2023-05-19T19:53:51.184Z,100.00
2023-05-19T19:57:01.934Z,100.00
2023-05-19T20:00:08.664Z,100.00
2023-05-19T20:03:12.635Z,100.00
2023-05-19T20:06:19.181Z,100.00
2023-05-19T20:09:22.062Z,100.00
2023-05-19T20:12:31.756Z,100.00
2023-05-19T20:15:55.261Z,100.00
2023-05-19T20:19:10.850Z,100.00
2023-05-19T20:22:23.012Z,100.00
2023-05-19T20:25:29.088Z,100.00
2023-05-19T20:28:35.046Z,100.00
2023-05-19T20:31:41.309Z,100.00
2023-05-19T20:38:04.227Z,100.00
2023-05-19T20:41:06.847Z,100.00
2023-05-19T20:44:18.802Z,100.00
2023-05-19T20:47:29.767Z,100.00
2023-05-19T20:50:36.109Z,100.00
2023-05-19T20:53:42.529Z,100.00
2023-05-19T20:56:44.973Z,100.00
2023-05-19T20:59:50.520Z,100.00
2023-05-19T21:02:56.620Z,100.00
2023-05-19T21:06:06.746Z,100.00
2023-05-19T21:09:11.852Z,100.00
2023-05-19T21:12:17.411Z,100.00
2023-05-19T21:15:24.925Z,100.00
2023-05-19T21:18:40.025Z,100.00
2023-05-19T21:21:45.057Z,100.00
2023-05-19T21:24:52.197Z,100.00
2023-05-19T21:27:56.283Z,100.00
2023-05-19T21:31:01.780Z,100.00
2023-05-19T21:34:07.099Z,100.00
2023-05-19T21:37:11.973Z,100.00
2023-05-19T21:40:15.155Z,100.00
2023-05-19T21:43:19.661Z,100.00
2023-05-19T21:46:22.126Z,100.00
2023-05-19T21:49:24.704Z,100.00
2023-05-19T21:52:27.232Z,100.00
2023-05-19T21:55:32.271Z,100.00
2023-05-19T21:58:38.247Z,100.00
2023-05-19T22:01:41.933Z,100.00
2023-05-19T22:04:45.083Z,100.00
2023-05-19T22:07:48.637Z,100.00
2023-05-19T22:10:56.077Z,100.00
2023-05-19T22:14:00.534Z,100.00
2023-05-19T22:17:05.094Z,100.00
2023-05-19T22:20:08.490Z,100.00
2023-05-19T22:23:10.917Z,100.00
2023-05-19T22:26:13.051Z,100.00
2023-05-19T22:29:18.588Z,100.00
2023-05-19T22:32:21.356Z,100.00
2023-05-19T22:35:23.780Z,100.00
2023-05-19T22:38:26.126Z,100.00
2023-05-19T22:41:28.543Z,100.00
2023-05-19T22:44:36.499Z,100.00
2023-05-19T22:47:38.980Z,100.00
2023-05-19T22:50:46.359Z,100.00
2023-05-19T22:53:49.372Z,100.00
2023-05-19T22:56:54.991Z,100.00
2023-05-19T23:00:06.497Z,100.00
2023-05-19T23:03:09.266Z,100.00
2023-05-19T23:06:11.843Z,100.00
2023-05-19T23:09:15.427Z,100.00
2023-05-19T23:12:17.946Z,100.00
2023-05-19T23:15:20.368Z,100.00
2023-05-19T23:18:25.206Z,100.00
2023-05-19T23:21:27.219Z,100.00
2023-05-19T23:24:29.572Z,100.00
2023-05-19T23:27:31.741Z,100.00
2023-05-19T23:30:37.176Z,100.00
2023-05-19T23:33:39.803Z,100.00
2023-05-19T23:36:43.027Z,100.00
2023-05-19T23:39:45.535Z,100.00
2023-05-19T23:42:47.601Z,100.00
2023-05-19T23:45:50.221Z,100.00
2023-05-19T23:48:52.484Z,100.00
2023-05-19T23:51:54.684Z,100.00
2023-05-19T23:54:57.311Z,100.00
2023-05-19T23:58:03.651Z,100.00
